createdAt,value
2019-03-24T00:00:53.482Z,17.37
2019-03-24T00:03:56.875Z,17.31
2019-03-24T00:06:59.178Z,17.25
2019-03-24T00:10:01.436Z,17.19
2019-03-24T00:13:04.829Z,17.12
2019-03-24T00:16:07.078Z,17.06
2019-03-24T00:19:09.339Z,17.00
2019-03-24T00:22:11.644Z,17.00
2019-03-24T00:25:13.964Z,16.87
2019-03-24T00:28:16.279Z,16.87
2019-03-24T00:31:18.530Z,16.81
2019-03-24T00:34:20.780Z,16.75
2019-03-24T00:37:23.055Z,16.69
2019-03-24T00:40:25.353Z,16.62
2019-03-24T00:43:28.687Z,16.56
2019-03-24T00:46:30.982Z,16.56
2019-03-24T00:49:34.320Z,16.50
2019-03-24T00:52:36.580Z,16.44
2019-03-24T00:55:38.861Z,16.37
2019-03-24T00:58:41.157Z,16.31
2019-03-24T01:01:43.457Z,16.25
2019-03-24T01:04:45.942Z,16.19
2019-03-24T01:07:48.219Z,16.19
2019-03-24T01:10:50.579Z,16.12
2019-03-24T01:13:52.896Z,16.06
2019-03-24T01:16:55.221Z,16.00
2019-03-24T01:19:57.492Z,16.00
2019-03-24T01:22:59.760Z,15.94
2019-03-24T01:26:02.028Z,15.88
2019-03-24T01:29:04.306Z,15.81
2019-03-24T01:32:06.629Z,15.75
2019-03-24T01:35:10.337Z,15.69
2019-03-24T01:38:12.615Z,15.69
2019-03-24T01:41:14.939Z,15.63
2019-03-24T01:44:17.200Z,15.56
2019-03-24T01:47:19.456Z,15.50
2019-03-24T01:50:21.745Z,15.50
2019-03-24T01:53:24.021Z,15.44
2019-03-24T01:56:26.289Z,15.38
2019-03-24T01:59:28.628Z,15.31
2019-03-24T02:02:30.915Z,15.25
2019-03-24T02:05:33.230Z,15.25
2019-03-24T02:08:35.623Z,15.19
2019-03-24T02:11:37.990Z,15.13
2019-03-24T02:14:40.256Z,15.06
2019-03-24T02:17:43.606Z,15.00
2019-03-24T02:20:45.908Z,15.00
2019-03-24T02:23:48.163Z,14.94
2019-03-24T02:26:50.472Z,14.87
2019-03-24T02:29:52.725Z,14.87
2019-03-24T02:32:55.001Z,14.75
2019-03-24T02:35:57.310Z,14.75
2019-03-24T02:38:59.577Z,14.69
2019-03-24T02:42:02.052Z,14.63
2019-03-24T02:45:04.698Z,14.63
2019-03-24T02:48:07.185Z,14.56
2019-03-24T02:51:09.545Z,14.50
2019-03-24T02:54:12.113Z,14.50
2019-03-24T02:57:14.410Z,14.44
2019-03-24T03:00:17.208Z,14.38
2019-03-24T03:03:19.469Z,14.31
2019-03-24T03:06:21.791Z,14.31
2019-03-24T03:09:25.162Z,14.25
2019-03-24T03:12:27.511Z,14.19
2019-03-24T03:15:30.799Z,14.19
2019-03-24T03:18:33.106Z,14.13
2019-03-24T03:21:35.371Z,14.06
2019-03-24T03:24:37.655Z,14.00
2019-03-24T03:27:39.940Z,14.00
2019-03-24T03:30:42.277Z,13.94
2019-03-24T03:33:44.552Z,13.88
2019-03-24T03:36:46.850Z,13.81
2019-03-24T03:39:49.160Z,13.81
2019-03-24T03:42:51.474Z,13.75
2019-03-24T03:45:53.761Z,13.69
2019-03-24T03:48:56.027Z,13.69
2019-03-24T03:51:58.294Z,13.62
2019-03-24T03:55:00.658Z,13.56
2019-03-24T03:58:03.043Z,13.56
2019-03-24T04:01:05.344Z,13.50
2019-03-24T04:04:07.673Z,13.50
2019-03-24T04:07:09.989Z,13.44
2019-03-24T04:10:12.372Z,13.38
2019-03-24T04:13:14.641Z,13.31
2019-03-24T04:16:16.930Z,13.31
2019-03-24T04:19:19.337Z,13.25
2019-03-24T04:22:21.630Z,13.19
2019-03-24T04:25:24.998Z,13.19
2019-03-24T04:28:27.297Z,13.13
2019-03-24T04:31:29.567Z,13.06
2019-03-24T04:34:31.842Z,13.06
2019-03-24T04:37:34.154Z,13.00
2019-03-24T04:40:36.480Z,12.94
2019-03-24T04:43:38.777Z,12.94
2019-03-24T04:46:41.073Z,12.88
2019-03-24T04:49:43.363Z,12.81
2019-03-24T04:52:45.661Z,12.81
2019-03-24T04:55:47.981Z,12.75
2019-03-24T04:58:51.336Z,12.75
2019-03-24T05:01:53.622Z,12.69
2019-03-24T05:04:55.907Z,12.63
2019-03-24T05:07:58.291Z,12.56
2019-03-24T05:11:00.600Z,12.56
2019-03-24T05:14:02.928Z,12.50
2019-03-24T05:17:05.245Z,12.50
2019-03-24T05:20:07.798Z,12.44
2019-03-24T05:23:10.140Z,12.44
2019-03-24T05:26:12.432Z,12.37
2019-03-24T05:29:14.719Z,12.37
2019-03-24T05:32:17.000Z,12.31
2019-03-24T05:35:20.392Z,12.31
2019-03-24T05:38:22.659Z,12.31
2019-03-24T05:41:25.006Z,12.25
2019-03-24T05:44:27.299Z,12.25
2019-03-24T05:47:36.772Z,12.25
2019-03-24T05:50:33.580Z,12.25
2019-03-24T05:53:35.877Z,12.25
2019-03-24T05:56:38.186Z,12.25
2019-03-24T05:59:40.551Z,12.25
2019-03-24T06:02:42.867Z,12.25
2019-03-24T06:05:45.156Z,12.25
2019-03-24T06:08:47.442Z,12.25
2019-03-24T06:11:49.754Z,12.25
2019-03-24T06:14:52.047Z,12.25
2019-03-24T06:17:54.366Z,12.31
2019-03-24T06:20:56.656Z,12.31
2019-03-24T06:23:58.918Z,12.31
2019-03-24T06:27:01.200Z,12.37
2019-03-24T06:30:03.501Z,12.44
2019-03-24T06:33:05.959Z,12.50
2019-03-24T06:36:08.235Z,12.50
2019-03-24T06:39:10.747Z,12.56
2019-03-24T06:42:13.124Z,12.69
2019-03-24T06:45:15.412Z,12.75
2019-03-24T06:48:17.683Z,12.81
2019-03-24T06:51:21.660Z,12.88
2019-03-24T06:54:24.012Z,13.00
2019-03-24T06:57:26.292Z,13.00
2019-03-24T07:00:28.560Z,13.06
2019-03-24T07:03:32.702Z,13.00
2019-03-24T07:06:34.924Z,13.00
2019-03-24T07:09:37.242Z,13.06
2019-03-24T07:12:39.547Z,13.13
2019-03-24T07:15:41.795Z,13.19
2019-03-24T07:18:44.036Z,13.25
2019-03-24T07:21:46.335Z,13.31
2019-03-24T07:24:48.604Z,13.44
2019-03-24T07:27:50.859Z,13.56
2019-03-24T07:30:53.262Z,13.62
2019-03-24T07:33:55.517Z,13.75
2019-03-24T07:36:57.783Z,13.88
2019-03-24T07:40:00.043Z,13.94
2019-03-24T07:43:02.341Z,14.06
2019-03-24T07:46:04.791Z,14.13
2019-03-24T07:49:07.145Z,14.25
2019-03-24T07:52:09.393Z,14.31
2019-03-24T07:55:12.371Z,14.44
2019-03-24T07:58:14.712Z,14.56
2019-03-24T08:01:17.005Z,14.69
2019-03-24T08:04:19.334Z,14.81
2019-03-24T08:07:21.642Z,14.94
2019-03-24T08:10:25.134Z,15.00
2019-03-24T08:13:27.399Z,15.13
2019-03-24T08:16:29.723Z,15.25
2019-03-24T08:19:32.031Z,15.44
2019-03-24T08:22:34.401Z,15.50
2019-03-24T08:25:36.831Z,15.69
2019-03-24T08:28:39.151Z,15.81
2019-03-24T08:31:41.427Z,15.94
2019-03-24T08:34:43.677Z,16.06
2019-03-24T08:37:45.957Z,16.19
2019-03-24T08:40:48.199Z,16.31
2019-03-24T08:43:50.573Z,16.44
2019-03-24T08:46:53.979Z,16.56
2019-03-24T08:49:56.266Z,16.75
2019-03-24T08:53:02.232Z,16.87
2019-03-24T08:56:09.733Z,17.00
2019-03-24T08:59:12.095Z,17.19
2019-03-24T09:02:14.444Z,17.37
2019-03-24T09:05:16.806Z,17.50
2019-03-24T09:08:19.117Z,17.69
2019-03-24T09:11:30.785Z,17.81
2019-03-24T09:14:25.573Z,17.94
2019-03-24T09:17:27.910Z,18.12
2019-03-24T09:20:40.983Z,18.25
2019-03-24T09:23:34.216Z,18.37
2019-03-24T09:26:36.505Z,18.56
2019-03-24T09:29:38.797Z,18.69
2019-03-24T09:32:41.090Z,18.81
2019-03-24T09:35:43.399Z,19.00
2019-03-24T09:38:45.686Z,19.19
2019-03-24T09:41:47.978Z,19.37
2019-03-24T09:44:50.257Z,19.50
2019-03-24T09:47:52.530Z,19.69
2019-03-24T09:50:54.851Z,19.87
2019-03-24T09:53:57.115Z,20.06
2019-03-24T09:56:59.521Z,20.25
2019-03-24T10:00:01.830Z,20.44
2019-03-24T10:03:05.395Z,20.62
2019-03-24T10:06:07.700Z,20.81
2019-03-24T10:09:10.027Z,21.00
2019-03-24T10:12:12.368Z,21.25
2019-03-24T10:15:14.778Z,21.44
2019-03-24T10:18:17.093Z,21.69
2019-03-24T10:21:19.380Z,21.94
2019-03-24T10:24:21.694Z,22.13
2019-03-24T10:27:23.975Z,22.37
2019-03-24T10:30:26.284Z,22.62
2019-03-24T10:33:28.589Z,22.87
2019-03-24T10:36:30.836Z,23.19
2019-03-24T10:39:33.105Z,23.50
2019-03-24T10:42:35.404Z,23.75
2019-03-24T10:45:37.750Z,24.06
2019-03-24T10:48:40.015Z,24.31
2019-03-24T10:51:42.283Z,24.56
2019-03-24T10:54:44.576Z,24.81
2019-03-24T10:57:46.847Z,24.19
2019-03-24T11:00:49.245Z,23.87
2019-03-24T11:03:51.541Z,23.75
2019-03-24T11:06:53.797Z,23.94
2019-03-24T11:09:56.074Z,24.00
2019-03-24T11:12:58.359Z,24.25
2019-03-24T11:16:00.641Z,25.25
2019-03-24T11:19:02.950Z,26.12
2019-03-24T11:22:05.219Z,26.62
2019-03-24T11:25:09.457Z,26.62
2019-03-24T11:28:11.715Z,27.06
2019-03-24T11:31:14.033Z,27.56
2019-03-24T11:34:16.310Z,27.62
2019-03-24T11:37:18.610Z,27.37
2019-03-24T11:40:20.909Z,27.44
2019-03-24T11:43:24.241Z,28.00
2019-03-24T11:46:26.517Z,28.19
2019-03-24T11:49:29.961Z,28.87
2019-03-24T11:52:32.351Z,28.56
2019-03-24T11:55:34.616Z,28.50
2019-03-24T11:58:36.962Z,29.00
2019-03-24T12:01:39.332Z,29.44
2019-03-24T12:04:41.656Z,29.56
2019-03-24T12:07:43.935Z,29.12
2019-03-24T12:10:46.194Z,28.81
2019-03-24T12:13:49.565Z,28.00
2019-03-24T12:16:55.163Z,28.19
2019-03-24T12:19:57.538Z,27.94
2019-03-24T12:22:59.862Z,27.87
2019-03-24T12:26:02.154Z,28.12
2019-03-24T12:29:04.453Z,27.94
2019-03-24T12:32:06.814Z,28.00
2019-03-24T12:35:09.261Z,28.00
2019-03-24T12:38:11.579Z,28.75
2019-03-24T12:41:13.874Z,28.62
2019-03-24T12:44:16.171Z,29.12
2019-03-24T12:47:18.495Z,28.94
2019-03-24T12:50:30.869Z,28.94
2019-03-24T12:53:24.947Z,28.87
2019-03-24T12:56:26.528Z,29.06
2019-03-24T12:59:28.746Z,29.25
2019-03-24T13:02:31.102Z,29.44
2019-03-24T13:05:33.495Z,29.12
2019-03-24T13:08:35.797Z,29.31
2019-03-24T13:11:38.083Z,29.31
2019-03-24T13:14:40.411Z,29.56
2019-03-24T13:17:42.724Z,29.50
2019-03-24T13:20:45.013Z,29.56
2019-03-24T13:23:47.304Z,29.87
2019-03-24T13:26:49.709Z,30.50
2019-03-24T13:29:52.012Z,30.81
2019-03-24T13:32:54.343Z,31.37
2019-03-24T13:36:09.988Z,31.31
2019-03-24T13:39:12.342Z,31.37
2019-03-24T13:42:14.648Z,31.50
2019-03-24T13:45:16.989Z,31.44
2019-03-24T13:48:19.308Z,31.56
2019-03-24T13:51:21.614Z,31.75
2019-03-24T13:54:23.994Z,31.81
2019-03-24T13:57:26.297Z,31.81
2019-03-24T14:00:28.624Z,31.00
2019-03-24T14:03:31.072Z,30.69
2019-03-24T14:06:33.381Z,30.62
2019-03-24T14:09:35.720Z,30.37
2019-03-24T14:12:38.004Z,30.69
2019-03-24T14:15:40.324Z,30.69
2019-03-24T14:18:42.653Z,30.81
2019-03-24T14:21:44.923Z,30.56
2019-03-24T14:24:47.245Z,30.44
2019-03-24T14:27:49.539Z,30.62
2019-03-24T14:30:52.405Z,30.81
2019-03-24T14:33:54.720Z,30.88
2019-03-24T14:36:57.124Z,30.94
2019-03-24T14:39:59.478Z,30.69
2019-03-24T14:43:01.809Z,30.75
2019-03-24T14:46:04.149Z,31.19
2019-03-24T14:49:06.664Z,31.12
2019-03-24T14:52:08.991Z,31.06
2019-03-24T14:55:11.367Z,31.62
2019-03-24T14:58:13.847Z,31.50
2019-03-24T15:01:16.240Z,30.31
2019-03-24T15:04:18.637Z,30.31
2019-03-24T15:07:20.979Z,29.25
2019-03-24T15:10:23.311Z,28.94
2019-03-24T15:13:25.598Z,28.81
2019-03-24T15:16:27.931Z,29.56
2019-03-24T15:19:30.238Z,30.37
2019-03-24T15:22:32.602Z,30.50
2019-03-24T15:25:37.444Z,29.56
2019-03-24T15:28:39.722Z,28.75
2019-03-24T15:31:42.117Z,28.56
2019-03-24T15:34:44.749Z,28.94
2019-03-24T15:37:48.329Z,29.31
2019-03-24T15:40:50.902Z,29.19
2019-03-24T15:43:55.316Z,29.87
2019-03-24T15:46:57.638Z,29.94
2019-03-24T15:50:00.331Z,30.25
2019-03-24T15:53:02.923Z,30.06
2019-03-24T15:56:05.424Z,29.94
2019-03-24T15:59:07.896Z,29.50
2019-03-24T16:02:10.330Z,29.25
2019-03-24T16:05:14.775Z,29.25
2019-03-24T16:08:17.131Z,28.56
2019-03-24T16:11:19.461Z,28.38
2019-03-24T16:14:21.814Z,28.31
2019-03-24T16:17:24.110Z,28.06
2019-03-24T16:20:28.656Z,28.19
2019-03-24T16:23:30.995Z,28.06
2019-03-24T16:26:33.322Z,28.00
2019-03-24T16:29:35.592Z,27.87
2019-03-24T16:32:39.598Z,27.87
2019-03-24T16:35:42.021Z,28.06
2019-03-24T16:38:48.972Z,27.50
2019-03-24T16:41:48.419Z,27.31
2019-03-24T16:44:50.773Z,27.13
2019-03-24T16:47:53.329Z,27.19
2019-03-24T16:50:55.742Z,26.56
2019-03-24T16:53:58.240Z,26.50
2019-03-24T16:57:03.269Z,26.50
2019-03-24T17:00:06.037Z,26.37
2019-03-24T17:03:08.457Z,26.00
2019-03-24T17:06:10.799Z,25.75
2019-03-24T17:09:13.076Z,25.31
2019-03-24T17:12:15.488Z,25.06
2019-03-24T17:15:18.194Z,24.81
2019-03-24T17:18:20.627Z,24.50
2019-03-24T17:21:22.992Z,24.37
2019-03-24T17:24:28.369Z,24.37
2019-03-24T17:27:30.764Z,24.25
2019-03-24T17:30:33.081Z,24.19
2019-03-24T17:33:35.407Z,23.87
2019-03-24T17:36:37.699Z,23.87
2019-03-24T17:39:40.316Z,23.56
2019-03-24T17:42:42.791Z,23.44
2019-03-24T17:45:45.193Z,23.44
2019-03-24T17:48:47.588Z,23.19
2019-03-24T17:52:00.213Z,23.06
2019-03-24T17:54:54.065Z,22.87
2019-03-24T17:57:56.405Z,22.69
2019-03-24T18:00:58.788Z,22.62
2019-03-24T18:04:01.153Z,22.69
2019-03-24T18:07:03.528Z,22.94
2019-03-24T18:10:07.630Z,23.00
2019-03-24T18:13:09.907Z,23.00
2019-03-24T18:16:12.189Z,23.00
2019-03-24T18:19:14.758Z,22.94
2019-03-24T18:22:17.021Z,22.81
2019-03-24T18:25:19.382Z,22.75
2019-03-24T18:28:21.779Z,22.69
2019-03-24T18:31:24.135Z,22.62
2019-03-24T18:34:26.492Z,22.56
2019-03-24T18:37:28.791Z,22.50
2019-03-24T18:40:31.370Z,22.44
2019-03-24T18:43:33.673Z,22.37
2019-03-24T18:46:36.021Z,22.31
2019-03-24T18:49:38.319Z,22.31
2019-03-24T18:52:40.669Z,22.37
2019-03-24T18:55:43.161Z,22.44
2019-03-24T18:58:48.046Z,22.44
2019-03-24T19:01:50.381Z,22.37
2019-03-24T19:04:52.771Z,22.31
2019-03-24T19:07:55.137Z,22.25
2019-03-24T19:10:57.436Z,22.19
2019-03-24T19:14:02.861Z,22.19
2019-03-24T19:17:05.185Z,22.06
2019-03-24T19:20:08.755Z,22.00
2019-03-24T19:23:14.419Z,21.94
2019-03-24T19:26:16.803Z,21.87
2019-03-24T19:29:19.206Z,21.81
2019-03-24T19:32:21.607Z,21.75
2019-03-24T19:35:24.064Z,21.69
2019-03-24T19:38:27.370Z,21.62
2019-03-24T19:41:29.847Z,21.56
2019-03-24T19:44:32.355Z,21.50
2019-03-24T19:47:35.782Z,21.44
2019-03-24T19:50:38.117Z,21.37
2019-03-24T19:53:40.476Z,21.31
2019-03-24T19:56:42.869Z,21.19
2019-03-24T19:59:45.250Z,21.19
2019-03-24T20:02:47.688Z,21.12
2019-03-24T20:05:50.082Z,21.06
2019-03-24T20:08:52.511Z,20.94
2019-03-24T20:11:54.987Z,20.88
2019-03-24T20:14:57.575Z,20.81
2019-03-24T20:18:00.023Z,20.75
2019-03-24T20:21:03.525Z,20.69
2019-03-24T20:24:05.918Z,20.62
2019-03-24T20:27:11.582Z,20.56
2019-03-24T20:30:15.730Z,20.44
2019-03-24T20:33:18.191Z,20.37
2019-03-24T20:36:20.681Z,20.31
2019-03-24T20:39:23.055Z,20.25
2019-03-24T20:42:25.515Z,20.19
2019-03-24T20:45:27.909Z,20.12
2019-03-24T20:48:30.510Z,20.06
2019-03-24T20:51:32.832Z,20.00
2019-03-24T20:54:37.444Z,19.94
2019-03-24T20:57:39.760Z,19.87
2019-03-24T21:00:42.095Z,19.81
2019-03-24T21:03:45.813Z,19.75
2019-03-24T21:06:48.631Z,19.69
2019-03-24T21:09:51.626Z,19.56
2019-03-24T21:12:54.209Z,19.50
2019-03-24T21:15:56.626Z,19.44
2019-03-24T21:18:59.252Z,19.37
2019-03-24T21:22:01.526Z,19.31
2019-03-24T21:25:04.225Z,19.25
2019-03-24T21:28:07.670Z,19.19
2019-03-24T21:31:10.065Z,19.12
2019-03-24T21:34:12.523Z,19.06
2019-03-24T21:37:14.855Z,19.00
2019-03-24T21:40:17.195Z,18.94
2019-03-24T21:43:46.823Z,18.87
2019-03-24T21:50:54.081Z,18.75
2019-03-24T21:53:56.590Z,18.69
2019-03-24T21:56:59.359Z,18.62
2019-03-24T22:00:08.364Z,18.62
2019-03-24T22:03:13.332Z,18.56
2019-03-24T22:06:16.133Z,18.50
2019-03-24T22:09:18.590Z,18.44
2019-03-24T22:12:21.335Z,18.37
2019-03-24T22:15:24.386Z,18.37
2019-03-24T22:18:27.050Z,18.31
2019-03-24T22:21:30.345Z,18.25
2019-03-24T22:24:32.842Z,18.19
2019-03-24T22:27:35.594Z,18.12
2019-03-24T22:30:38.081Z,18.12
2019-03-24T22:33:40.459Z,18.06
2019-03-24T22:36:42.738Z,18.00
2019-03-24T22:39:45.061Z,18.00
2019-03-24T22:42:47.441Z,17.94
2019-03-24T22:45:49.798Z,17.87
2019-03-24T22:48:52.123Z,17.87
2019-03-24T22:51:58.701Z,17.81
2019-03-24T22:54:58.538Z,17.75
2019-03-24T22:58:00.897Z,17.75
2019-03-24T23:01:03.497Z,17.69
2019-03-24T23:04:07.524Z,17.69
2019-03-24T23:07:09.785Z,17.62
2019-03-24T23:10:15.199Z,17.56
2019-03-24T23:13:17.528Z,17.56
2019-03-24T23:16:19.900Z,17.50
2019-03-24T23:19:22.228Z,17.50
2019-03-24T23:22:34.043Z,17.44
2019-03-24T23:25:42.609Z,17.44
2019-03-24T23:28:43.217Z,17.37
2019-03-24T23:31:45.627Z,17.31
2019-03-24T23:34:48.542Z,17.31
2019-03-24T23:37:51.987Z,17.25
2019-03-24T23:40:54.705Z,17.25
2019-03-24T23:43:57.042Z,17.19
2019-03-24T23:46:59.364Z,17.19
2019-03-24T23:50:24.646Z,17.12
2019-03-24T23:53:26.998Z,17.12
2019-03-24T23:56:29.313Z,17.12
2019-03-24T23:59:31.712Z,17.06
